sensor_id;sensor_type;location;lat;lon;timestamp;P1;durP1;ratioP1;P2;durP2;ratioP2
50379;SDS011;37474;59.468;18.040;2023-03-13T00:01:39;1.27;;;0.80;;
50379;SDS011;37474;59.468;18.040;2023-03-13T00:04:08;1.93;;;1.03;;
50379;SDS011;37474;59.468;18.040;2023-03-13T00:06:38;4.73;;;1.27;;
50379;SDS011;37474;59.468;18.040;2023-03-13T00:09:10;2.08;;;1.00;;
50379;SDS011;37474;59.468;18.040;2023-03-13T00:11:40;2.60;;;1.00;;
50379;SDS011;37474;59.468;18.040;2023-03-13T00:14:08;2.28;;;1.20;;
50379;SDS011;37474;59.468;18.040;2023-03-13T00:16:38;1.77;;;0.77;;
50379;SDS011;37474;59.468;18.040;2023-03-13T00:19:06;2.33;;;0.80;;
50379;SDS011;37474;59.468;18.040;2023-03-13T00:21:35;3.67;;;0.80;;
50379;SDS011;37474;59.468;18.040;2023-03-13T00:24:11;2.05;;;0.63;;
50379;SDS011;37474;59.468;18.040;2023-03-13T00:26:39;1.17;;;0.52;;
50379;SDS011;37474;59.468;18.040;2023-03-13T00:29:06;1.20;;;0.70;;
50379;SDS011;37474;59.468;18.040;2023-03-13T00:31:36;4.80;;;0.75;;
50379;SDS011;37474;59.468;18.040;2023-03-13T00:34:04;1.13;;;0.65;;
50379;SDS011;37474;59.468;18.040;2023-03-13T00:36:32;1.30;;;0.55;;
50379;SDS011;37474;59.468;18.040;2023-03-13T00:39:04;1.58;;;0.77;;
50379;SDS011;37474;59.468;18.040;2023-03-13T00:41:35;1.00;;;0.57;;
50379;SDS011;37474;59.468;18.040;2023-03-13T00:44:04;1.77;;;0.52;;
50379;SDS011;37474;59.468;18.040;2023-03-13T00:46:34;3.10;;;0.60;;
50379;SDS011;37474;59.468;18.040;2023-03-13T00:49:04;1.77;;;0.45;;
50379;SDS011;37474;59.468;18.040;2023-03-13T00:51:32;1.00;;;0.40;;
50379;SDS011;37474;59.468;18.040;2023-03-13T00:54:01;1.05;;;0.50;;
50379;SDS011;37474;59.468;18.040;2023-03-13T00:56:33;0.63;;;0.50;;
50379;SDS011;37474;59.468;18.040;2023-03-13T00:59:00;2.05;;;0.40;;
50379;SDS011;37474;59.468;18.040;2023-03-13T01:01:31;1.05;;;0.60;;
50379;SDS011;37474;59.468;18.040;2023-03-13T01:04:03;1.10;;;0.60;;
50379;SDS011;37474;59.468;18.040;2023-03-13T01:06:35;0.98;;;0.60;;
50379;SDS011;37474;59.468;18.040;2023-03-13T01:09:08;2.20;;;0.50;;
50379;SDS011;37474;59.468;18.040;2023-03-13T01:11:43;0.75;;;0.50;;
50379;SDS011;37474;59.468;18.040;2023-03-13T01:14:14;2.90;;;0.60;;
50379;SDS011;37474;59.468;18.040;2023-03-13T01:16:45;0.80;;;0.60;;
50379;SDS011;37474;59.468;18.040;2023-03-13T01:19:14;1.42;;;0.70;;
50379;SDS011;37474;59.468;18.040;2023-03-13T01:21:45;4.10;;;0.60;;
50379;SDS011;37474;59.468;18.040;2023-03-13T01:24:15;3.20;;;0.70;;
50379;SDS011;37474;59.468;18.040;2023-03-13T01:26:46;2.13;;;0.70;;
50379;SDS011;37474;59.468;18.040;2023-03-13T01:29:15;2.03;;;0.57;;
50379;SDS011;37474;59.468;18.040;2023-03-13T01:31:45;3.20;;;0.57;;
50379;SDS011;37474;59.468;18.040;2023-03-13T01:34:13;0.75;;;0.50;;
50379;SDS011;37474;59.468;18.040;2023-03-13T01:36:43;1.23;;;0.80;;
50379;SDS011;37474;59.468;18.040;2023-03-13T01:39:17;1.15;;;0.80;;
50379;SDS011;37474;59.468;18.040;2023-03-13T01:41:48;2.15;;;0.70;;
50379;SDS011;37474;59.468;18.040;2023-03-13T01:44:19;1.30;;;0.60;;
50379;SDS011;37474;59.468;18.040;2023-03-13T01:46:52;2.67;;;0.70;;
50379;SDS011;37474;59.468;18.040;2023-03-13T01:49:21;0.93;;;0.70;;
50379;SDS011;37474;59.468;18.040;2023-03-13T01:51:56;1.23;;;0.70;;
50379;SDS011;37474;59.468;18.040;2023-03-13T01:54:30;1.15;;;0.68;;
50379;SDS011;37474;59.468;18.040;2023-03-13T01:57:06;1.50;;;0.60;;
50379;SDS011;37474;59.468;18.040;2023-03-13T01:59:43;1.48;;;0.70;;
50379;SDS011;37474;59.468;18.040;2023-03-13T02:02:16;1.80;;;0.55;;
50379;SDS011;37474;59.468;18.040;2023-03-13T02:04:45;1.52;;;0.68;;
50379;SDS011;37474;59.468;18.040;2023-03-13T02:07:16;0.77;;;0.60;;
50379;SDS011;37474;59.468;18.040;2023-03-13T02:09:49;3.10;;;0.60;;
50379;SDS011;37474;59.468;18.040;2023-03-13T02:12:23;3.30;;;0.73;;
50379;SDS011;37474;59.468;18.040;2023-03-13T02:15:02;0.95;;;0.52;;
50379;SDS011;37474;59.468;18.040;2023-03-13T02:17:32;2.40;;;0.70;;
50379;SDS011;37474;59.468;18.040;2023-03-13T02:20:06;1.23;;;0.60;;
50379;SDS011;37474;59.468;18.040;2023-03-13T02:22:37;1.00;;;0.60;;
50379;SDS011;37474;59.468;18.040;2023-03-13T02:25:15;1.33;;;0.70;;
50379;SDS011;37474;59.468;18.040;2023-03-13T02:27:53;4.40;;;0.70;;
50379;SDS011;37474;59.468;18.040;2023-03-13T02:30:28;0.68;;;0.50;;
50379;SDS011;37474;59.468;18.040;2023-03-13T02:32:56;1.60;;;0.70;;
50379;SDS011;37474;59.468;18.040;2023-03-13T02:35:24;1.38;;;0.82;;
50379;SDS011;37474;59.468;18.040;2023-03-13T02:37:57;1.17;;;0.63;;
50379;SDS011;37474;59.468;18.040;2023-03-13T02:40:29;2.50;;;0.80;;
50379;SDS011;37474;59.468;18.040;2023-03-13T02:43:05;1.67;;;0.80;;
50379;SDS011;37474;59.468;18.040;2023-03-13T02:45:36;1.67;;;0.55;;
50379;SDS011;37474;59.468;18.040;2023-03-13T02:48:06;1.35;;;0.63;;
50379;SDS011;37474;59.468;18.040;2023-03-13T02:50:34;1.50;;;0.77;;
50379;SDS011;37474;59.468;18.040;2023-03-13T02:53:04;3.33;;;0.70;;
50379;SDS011;37474;59.468;18.040;2023-03-13T02:55:38;2.60;;;0.60;;
50379;SDS011;37474;59.468;18.040;2023-03-13T02:58:08;2.05;;;0.70;;
50379;SDS011;37474;59.468;18.040;2023-03-13T03:00:36;2.53;;;0.70;;
50379;SDS011;37474;59.468;18.040;2023-03-13T03:03:08;1.08;;;0.70;;
50379;SDS011;37474;59.468;18.040;2023-03-13T03:05:38;1.45;;;0.95;;
50379;SDS011;37474;59.468;18.040;2023-03-13T03:08:06;0.85;;;0.50;;
50379;SDS011;37474;59.468;18.040;2023-03-13T03:10:36;1.60;;;0.70;;
50379;SDS011;37474;59.468;18.040;2023-03-13T03:13:06;2.47;;;0.80;;
50379;SDS011;37474;59.468;18.040;2023-03-13T03:15:35;2.00;;;1.00;;
50379;SDS011;37474;59.468;18.040;2023-03-13T03:18:04;2.40;;;0.75;;
50379;SDS011;37474;59.468;18.040;2023-03-13T03:20:34;1.02;;;0.70;;
50379;SDS011;37474;59.468;18.040;2023-03-13T03:23:02;1.83;;;0.55;;
50379;SDS011;37474;59.468;18.040;2023-03-13T03:25:32;1.95;;;0.70;;
50379;SDS011;37474;59.468;18.040;2023-03-13T03:28:02;1.38;;;0.90;;
50379;SDS011;37474;59.468;18.040;2023-03-13T03:30:31;1.67;;;0.73;;
50379;SDS011;37474;59.468;18.040;2023-03-13T03:33:01;2.05;;;0.50;;
50379;SDS011;37474;59.468;18.040;2023-03-13T03:35:32;0.93;;;0.60;;
50379;SDS011;37474;59.468;18.040;2023-03-13T03:38:07;3.40;;;1.02;;
50379;SDS011;37474;59.468;18.040;2023-03-13T03:43:03;2.50;;;0.80;;
50379;SDS011;37474;59.468;18.040;2023-03-13T03:45:36;2.38;;;0.60;;
50379;SDS011;37474;59.468;18.040;2023-03-13T03:48:04;1.27;;;0.70;;
50379;SDS011;37474;59.468;18.040;2023-03-13T03:50:32;1.95;;;0.75;;
50379;SDS011;37474;59.468;18.040;2023-03-13T03:53:03;2.05;;;0.77;;
50379;SDS011;37474;59.468;18.040;2023-03-13T03:55:31;1.67;;;0.80;;
50379;SDS011;37474;59.468;18.040;2023-03-13T03:58:00;2.03;;;0.90;;
50379;SDS011;37474;59.468;18.040;2023-03-13T04:00:32;4.30;;;0.80;;
50379;SDS011;37474;59.468;18.040;2023-03-13T04:03:01;5.05;;;0.73;;
50379;SDS011;37474;59.468;18.040;2023-03-13T04:05:29;0.80;;;0.70;;
50379;SDS011;37474;59.468;18.040;2023-03-13T04:08:01;3.40;;;0.82;;
50379;SDS011;37474;59.468;18.040;2023-03-13T04:10:28;3.42;;;0.70;;
50379;SDS011;37474;59.468;18.040;2023-03-13T04:12:56;1.30;;;0.60;;
50379;SDS011;37474;59.468;18.040;2023-03-13T04:15:28;1.55;;;0.73;;
50379;SDS011;37474;59.468;18.040;2023-03-13T04:17:57;0.93;;;0.80;;
50379;SDS011;37474;59.468;18.040;2023-03-13T04:20:25;3.35;;;1.00;;
50379;SDS011;37474;59.468;18.040;2023-03-13T04:22:58;2.28;;;0.70;;
50379;SDS011;37474;59.468;18.040;2023-03-13T04:25:26;2.00;;;0.70;;
50379;SDS011;37474;59.468;18.040;2023-03-13T04:27:54;2.13;;;0.75;;
50379;SDS011;37474;59.468;18.040;2023-03-13T04:30:26;1.00;;;0.65;;
50379;SDS011;37474;59.468;18.040;2023-03-13T04:32:53;0.90;;;0.70;;
50379;SDS011;37474;59.468;18.040;2023-03-13T04:35:22;2.90;;;0.70;;
50379;SDS011;37474;59.468;18.040;2023-03-13T04:37:54;4.10;;;0.90;;
50379;SDS011;37474;59.468;18.040;2023-03-13T04:40:25;1.58;;;0.73;;
50379;SDS011;37474;59.468;18.040;2023-03-13T04:42:53;3.60;;;0.70;;
50379;SDS011;37474;59.468;18.040;2023-03-13T04:45:25;1.55;;;0.60;;
50379;SDS011;37474;59.468;18.040;2023-03-13T04:47:53;1.98;;;0.73;;
50379;SDS011;37474;59.468;18.040;2023-03-13T04:50:22;1.35;;;0.90;;
50379;SDS011;37474;59.468;18.040;2023-03-13T04:52:54;3.85;;;0.70;;
50379;SDS011;37474;59.468;18.040;2023-03-13T04:55:24;1.83;;;0.90;;
50379;SDS011;37474;59.468;18.040;2023-03-13T04:57:52;1.20;;;0.70;;
50379;SDS011;37474;59.468;18.040;2023-03-13T05:00:20;3.50;;;0.85;;
50379;SDS011;37474;59.468;18.040;2023-03-13T05:02:50;1.85;;;0.80;;
50379;SDS011;37474;59.468;18.040;2023-03-13T05:07:49;4.13;;;0.82;;
50379;SDS011;37474;59.468;18.040;2023-03-13T05:10:18;2.22;;;0.90;;
50379;SDS011;37474;59.468;18.040;2023-03-13T05:15:16;3.45;;;0.90;;
50379;SDS011;37474;59.468;18.040;2023-03-13T05:17:46;2.42;;;1.00;;
50379;SDS011;37474;59.468;18.040;2023-03-13T05:20:14;3.00;;;0.90;;
50379;SDS011;37474;59.468;18.040;2023-03-13T05:22:44;1.73;;;0.77;;
50379;SDS011;37474;59.468;18.040;2023-03-13T05:25:19;1.25;;;0.80;;
50379;SDS011;37474;59.468;18.040;2023-03-13T05:27:48;2.55;;;1.20;;
50379;SDS011;37474;59.468;18.040;2023-03-13T05:30:16;4.20;;;0.85;;
50379;SDS011;37474;59.468;18.040;2023-03-13T05:32:46;4.20;;;1.05;;
50379;SDS011;37474;59.468;18.040;2023-03-13T05:35:16;3.72;;;1.40;;
50379;SDS011;37474;59.468;18.040;2023-03-13T05:37:44;5.50;;;1.00;;
50379;SDS011;37474;59.468;18.040;2023-03-13T05:40:16;2.03;;;1.00;;
50379;SDS011;37474;59.468;18.040;2023-03-13T05:42:45;2.50;;;0.90;;
50379;SDS011;37474;59.468;18.040;2023-03-13T05:45:13;5.03;;;1.55;;
50379;SDS011;37474;59.468;18.040;2023-03-13T05:47:43;3.90;;;1.15;;
50379;SDS011;37474;59.468;18.040;2023-03-13T05:50:13;5.07;;;1.00;;
50379;SDS011;37474;59.468;18.040;2023-03-13T05:52:41;4.70;;;1.10;;
50379;SDS011;37474;59.468;18.040;2023-03-13T05:55:11;3.90;;;1.10;;
50379;SDS011;37474;59.468;18.040;2023-03-13T05:57:44;4.30;;;1.40;;
50379;SDS011;37474;59.468;18.040;2023-03-13T06:00:13;3.43;;;1.13;;
50379;SDS011;37474;59.468;18.040;2023-03-13T06:02:42;5.57;;;1.40;;
50379;SDS011;37474;59.468;18.040;2023-03-13T06:05:12;5.17;;;1.40;;
50379;SDS011;37474;59.468;18.040;2023-03-13T06:07:40;5.18;;;1.23;;
50379;SDS011;37474;59.468;18.040;2023-03-13T06:10:10;4.60;;;1.00;;
50379;SDS011;37474;59.468;18.040;2023-03-13T06:12:44;4.30;;;1.17;;
50379;SDS011;37474;59.468;18.040;2023-03-13T06:15:23;3.33;;;0.90;;
50379;SDS011;37474;59.468;18.040;2023-03-13T06:17:53;2.97;;;0.80;;
50379;SDS011;37474;59.468;18.040;2023-03-13T06:20:20;1.25;;;0.90;;
50379;SDS011;37474;59.468;18.040;2023-03-13T06:22:50;3.28;;;1.20;;
50379;SDS011;37474;59.468;18.040;2023-03-13T06:25:20;4.20;;;1.10;;
50379;SDS011;37474;59.468;18.040;2023-03-13T06:27:51;3.73;;;1.10;;
50379;SDS011;37474;59.468;18.040;2023-03-13T06:30:21;6.37;;;1.40;;
50379;SDS011;37474;59.468;18.040;2023-03-13T06:32:49;4.03;;;0.97;;
50379;SDS011;37474;59.468;18.040;2023-03-13T06:35:19;2.70;;;1.10;;
50379;SDS011;37474;59.468;18.040;2023-03-13T06:37:49;3.80;;;0.83;;
50379;SDS011;37474;59.468;18.040;2023-03-13T06:40:17;2.17;;;0.80;;
50379;SDS011;37474;59.468;18.040;2023-03-13T06:42:47;2.37;;;1.10;;
50379;SDS011;37474;59.468;18.040;2023-03-13T06:45:18;5.10;;;1.10;;
50379;SDS011;37474;59.468;18.040;2023-03-13T06:47:46;1.90;;;1.00;;
50379;SDS011;37474;59.468;18.040;2023-03-13T06:50:18;4.97;;;1.20;;
50379;SDS011;37474;59.468;18.040;2023-03-13T06:52:48;2.80;;;1.00;;
50379;SDS011;37474;59.468;18.040;2023-03-13T06:55:16;3.90;;;1.40;;
50379;SDS011;37474;59.468;18.040;2023-03-13T06:57:48;4.63;;;2.00;;
50379;SDS011;37474;59.468;18.040;2023-03-13T07:00:20;5.23;;;2.00;;
50379;SDS011;37474;59.468;18.040;2023-03-13T07:02:50;4.45;;;1.30;;
50379;SDS011;37474;59.468;18.040;2023-03-13T07:05:19;2.70;;;0.90;;
50379;SDS011;37474;59.468;18.040;2023-03-13T07:07:48;1.60;;;0.80;;
50379;SDS011;37474;59.468;18.040;2023-03-13T07:10:18;1.23;;;0.77;;
50379;SDS011;37474;59.468;18.040;2023-03-13T07:12:46;4.00;;;0.85;;
50379;SDS011;37474;59.468;18.040;2023-03-13T07:15:16;4.20;;;0.80;;
50379;SDS011;37474;59.468;18.040;2023-03-13T07:17:45;2.27;;;0.80;;
50379;SDS011;37474;59.468;18.040;2023-03-13T07:20:16;3.20;;;0.70;;
50379;SDS011;37474;59.468;18.040;2023-03-13T07:22:50;5.17;;;1.00;;
50379;SDS011;37474;59.468;18.040;2023-03-13T07:25:20;1.73;;;0.80;;
50379;SDS011;37474;59.468;18.040;2023-03-13T07:27:50;1.42;;;0.68;;
50379;SDS011;37474;59.468;18.040;2023-03-13T07:30:18;1.30;;;0.60;;
50379;SDS011;37474;59.468;18.040;2023-03-13T07:32:48;1.80;;;0.70;;
50379;SDS011;37474;59.468;18.040;2023-03-13T07:35:18;1.00;;;0.60;;
50379;SDS011;37474;59.468;18.040;2023-03-13T07:37:45;2.93;;;0.60;;
50379;SDS011;37474;59.468;18.040;2023-03-13T07:40:13;1.53;;;0.60;;
50379;SDS011;37474;59.468;18.040;2023-03-13T07:42:43;3.88;;;0.47;;
50379;SDS011;37474;59.468;18.040;2023-03-13T07:45:11;3.53;;;0.80;;
50379;SDS011;37474;59.468;18.040;2023-03-13T07:47:39;4.83;;;0.70;;
50379;SDS011;37474;59.468;18.040;2023-03-13T07:50:10;2.78;;;0.60;;
50379;SDS011;37474;59.468;18.040;2023-03-13T07:52:38;1.67;;;0.70;;
50379;SDS011;37474;59.468;18.040;2023-03-13T07:55:06;2.27;;;0.60;;
50379;SDS011;37474;59.468;18.040;2023-03-13T07:57:41;2.40;;;0.70;;
50379;SDS011;37474;59.468;18.040;2023-03-13T08:00:11;4.47;;;0.70;;
50379;SDS011;37474;59.468;18.040;2023-03-13T08:02:44;2.73;;;0.50;;
50379;SDS011;37474;59.468;18.040;2023-03-13T08:05:13;3.10;;;0.60;;
50379;SDS011;37474;59.468;18.040;2023-03-13T08:07:42;1.63;;;0.50;;
50379;SDS011;37474;59.468;18.040;2023-03-13T08:10:13;2.10;;;0.57;;
50379;SDS011;37474;59.468;18.040;2023-03-13T08:12:40;7.10;;;0.80;;
50379;SDS011;37474;59.468;18.040;2023-03-13T08:15:08;2.70;;;0.50;;
50379;SDS011;37474;59.468;18.040;2023-03-13T08:17:38;2.95;;;0.60;;
50379;SDS011;37474;59.468;18.040;2023-03-13T08:20:07;3.40;;;0.50;;
50379;SDS011;37474;59.468;18.040;2023-03-13T08:22:37;5.18;;;0.85;;
50379;SDS011;37474;59.468;18.040;2023-03-13T08:25:07;4.57;;;0.60;;
50379;SDS011;37474;59.468;18.040;2023-03-13T08:27:35;3.78;;;0.70;;
50379;SDS011;37474;59.468;18.040;2023-03-13T08:30:05;3.03;;;0.80;;
50379;SDS011;37474;59.468;18.040;2023-03-13T08:32:36;3.33;;;0.60;;
50379;SDS011;37474;59.468;18.040;2023-03-13T08:35:04;4.40;;;0.60;;
50379;SDS011;37474;59.468;18.040;2023-03-13T08:37:32;2.87;;;0.47;;
50379;SDS011;37474;59.468;18.040;2023-03-13T08:40:02;5.20;;;0.60;;
50379;SDS011;37474;59.468;18.040;2023-03-13T08:42:35;3.70;;;0.90;;
50379;SDS011;37474;59.468;18.040;2023-03-13T08:45:04;3.10;;;0.70;;
50379;SDS011;37474;59.468;18.040;2023-03-13T08:47:33;2.30;;;0.90;;
50379;SDS011;37474;59.468;18.040;2023-03-13T08:50:01;4.33;;;0.90;;
50379;SDS011;37474;59.468;18.040;2023-03-13T08:55:03;2.70;;;0.60;;
50379;SDS011;37474;59.468;18.040;2023-03-13T08:57:32;6.85;;;1.88;;
50379;SDS011;37474;59.468;18.040;2023-03-13T09:00:02;14.60;;;4.95;;
50379;SDS011;37474;59.468;18.040;2023-03-13T09:02:42;2.50;;;1.67;;
50379;SDS011;37474;59.468;18.040;2023-03-13T09:05:10;4.53;;;1.10;;
50379;SDS011;37474;59.468;18.040;2023-03-13T09:07:38;4.50;;;2.07;;
50379;SDS011;37474;59.468;18.040;2023-03-13T09:10:08;4.43;;;1.40;;
50379;SDS011;37474;59.468;18.040;2023-03-13T09:12:39;6.00;;;1.48;;
50379;SDS011;37474;59.468;18.040;2023-03-13T09:15:08;4.53;;;1.10;;
50379;SDS011;37474;59.468;18.040;2023-03-13T09:17:36;5.33;;;1.00;;
50379;SDS011;37474;59.468;18.040;2023-03-13T09:20:04;4.33;;;1.00;;
50379;SDS011;37474;59.468;18.040;2023-03-13T09:22:34;12.60;;;3.20;;
50379;SDS011;37474;59.468;18.040;2023-03-13T09:25:01;4.40;;;1.17;;
50379;SDS011;37474;59.468;18.040;2023-03-13T09:27:31;4.23;;;1.03;;
50379;SDS011;37474;59.468;18.040;2023-03-13T09:30:01;4.63;;;1.00;;
50379;SDS011;37474;59.468;18.040;2023-03-13T09:32:28;3.97;;;1.13;;
50379;SDS011;37474;59.468;18.040;2023-03-13T09:34:56;3.90;;;0.93;;
50379;SDS011;37474;59.468;18.040;2023-03-13T09:37:26;4.20;;;1.52;;
50379;SDS011;37474;59.468;18.040;2023-03-13T09:39:54;6.77;;;1.33;;
50379;SDS011;37474;59.468;18.040;2023-03-13T09:42:27;3.70;;;1.57;;
50379;SDS011;37474;59.468;18.040;2023-03-13T09:45:07;5.17;;;1.20;;
50379;SDS011;37474;59.468;18.040;2023-03-13T09:47:42;4.30;;;1.00;;
50379;SDS011;37474;59.468;18.040;2023-03-13T09:50:14;4.33;;;1.00;;
50379;SDS011;37474;59.468;18.040;2023-03-13T09:52:48;6.23;;;1.10;;
50379;SDS011;37474;59.468;18.040;2023-03-13T09:55:21;2.93;;;0.90;;
50379;SDS011;37474;59.468;18.040;2023-03-13T09:57:53;2.77;;;1.00;;
50379;SDS011;37474;59.468;18.040;2023-03-13T10:00:23;3.97;;;1.17;;
50379;SDS011;37474;59.468;18.040;2023-03-13T10:02:54;1.98;;;0.90;;
50379;SDS011;37474;59.468;18.040;2023-03-13T10:05:25;5.37;;;1.17;;
50379;SDS011;37474;59.468;18.040;2023-03-13T10:07:55;4.22;;;0.90;;
50379;SDS011;37474;59.468;18.040;2023-03-13T10:10:29;4.53;;;1.20;;
50379;SDS011;37474;59.468;18.040;2023-03-13T10:13:10;6.07;;;2.10;;
50379;SDS011;37474;59.468;18.040;2023-03-13T10:15:44;3.10;;;1.33;;
50379;SDS011;37474;59.468;18.040;2023-03-13T10:18:18;3.23;;;1.20;;
50379;SDS011;37474;59.468;18.040;2023-03-13T10:20:48;3.80;;;0.90;;
50379;SDS011;37474;59.468;18.040;2023-03-13T10:23:18;2.05;;;0.85;;
50379;SDS011;37474;59.468;18.040;2023-03-13T10:25:55;1.40;;;0.90;;
50379;SDS011;37474;59.468;18.040;2023-03-13T10:28:26;5.07;;;2.37;;
50379;SDS011;37474;59.468;18.040;2023-03-13T10:30:56;3.33;;;1.20;;
50379;SDS011;37474;59.468;18.040;2023-03-13T10:33:33;3.47;;;1.23;;
50379;SDS011;37474;59.468;18.040;2023-03-13T10:36:05;3.75;;;1.90;;
50379;SDS011;37474;59.468;18.040;2023-03-13T10:38:44;1.83;;;1.10;;
50379;SDS011;37474;59.468;18.040;2023-03-13T10:41:22;3.27;;;1.27;;
50379;SDS011;37474;59.468;18.040;2023-03-13T10:43:59;2.87;;;1.60;;
50379;SDS011;37474;59.468;18.040;2023-03-13T10:46:32;3.87;;;1.20;;
50379;SDS011;37474;59.468;18.040;2023-03-13T10:49:03;2.57;;;1.17;;
50379;SDS011;37474;59.468;18.040;2023-03-13T10:51:43;1.37;;;0.87;;
50379;SDS011;37474;59.468;18.040;2023-03-13T10:54:15;2.23;;;0.93;;
50379;SDS011;37474;59.468;18.040;2023-03-13T10:56:51;1.70;;;1.10;;
50379;SDS011;37474;59.468;18.040;2023-03-13T10:59:38;5.57;;;1.37;;
50379;SDS011;37474;59.468;18.040;2023-03-13T11:02:18;1.47;;;1.00;;
50379;SDS011;37474;59.468;18.040;2023-03-13T11:04:49;4.63;;;1.67;;
50379;SDS011;37474;59.468;18.040;2023-03-13T11:07:20;1.77;;;0.88;;
50379;SDS011;37474;59.468;18.040;2023-03-13T11:09:58;3.50;;;1.27;;
50379;SDS011;37474;59.468;18.040;2023-03-13T11:12:33;2.40;;;1.10;;
50379;SDS011;37474;59.468;18.040;2023-03-13T11:15:10;2.00;;;1.00;;
50379;SDS011;37474;59.468;18.040;2023-03-13T11:17:45;2.22;;;1.10;;
50379;SDS011;37474;59.468;18.040;2023-03-13T11:20:21;3.00;;;1.40;;
50379;SDS011;37474;59.468;18.040;2023-03-13T11:23:00;3.47;;;1.23;;
50379;SDS011;37474;59.468;18.040;2023-03-13T11:25:41;5.47;;;1.60;;
50379;SDS011;37474;59.468;18.040;2023-03-13T11:28:16;2.37;;;1.20;;
50379;SDS011;37474;59.468;18.040;2023-03-13T11:31:01;2.20;;;1.20;;
50379;SDS011;37474;59.468;18.040;2023-03-13T11:33:37;1.47;;;0.90;;
50379;SDS011;37474;59.468;18.040;2023-03-13T11:36:17;1.98;;;0.88;;
50379;SDS011;37474;59.468;18.040;2023-03-13T11:38:48;1.30;;;1.20;;
50379;SDS011;37474;59.468;18.040;2023-03-13T11:41:23;4.73;;;2.10;;
50379;SDS011;37474;59.468;18.040;2023-03-13T11:44:07;2.27;;;1.00;;
50379;SDS011;37474;59.468;18.040;2023-03-13T11:46:51;3.00;;;1.10;;
50379;SDS011;37474;59.468;18.040;2023-03-13T11:49:34;1.42;;;0.90;;
50379;SDS011;37474;59.468;18.040;2023-03-13T11:52:20;1.80;;;0.80;;
50379;SDS011;37474;59.468;18.040;2023-03-13T11:54:58;2.07;;;0.70;;
50379;SDS011;37474;59.468;18.040;2023-03-13T11:57:42;1.20;;;0.83;;
50379;SDS011;37474;59.468;18.040;2023-03-13T12:00:21;1.77;;;0.90;;
50379;SDS011;37474;59.468;18.040;2023-03-13T12:02:58;1.63;;;0.90;;
50379;SDS011;37474;59.468;18.040;2023-03-13T12:05:34;1.97;;;0.90;;
50379;SDS011;37474;59.468;18.040;2023-03-13T12:08:09;2.40;;;1.00;;
50379;SDS011;37474;59.468;18.040;2023-03-13T12:10:45;3.17;;;1.10;;
50379;SDS011;37474;59.468;18.040;2023-03-13T12:13:18;1.40;;;0.77;;
50379;SDS011;37474;59.468;18.040;2023-03-13T12:15:53;3.07;;;1.20;;
50379;SDS011;37474;59.468;18.040;2023-03-13T12:18:28;2.33;;;0.80;;
50379;SDS011;37474;59.468;18.040;2023-03-13T12:21:02;3.60;;;0.80;;
50379;SDS011;37474;59.468;18.040;2023-03-13T12:23:39;1.23;;;0.93;;
50379;SDS011;37474;59.468;18.040;2023-03-13T12:26:15;2.50;;;1.13;;
50379;SDS011;37474;59.468;18.040;2023-03-13T12:28:47;1.27;;;1.00;;
50379;SDS011;37474;59.468;18.040;2023-03-13T12:31:24;1.77;;;1.00;;
50379;SDS011;37474;59.468;18.040;2023-03-13T12:33:58;1.30;;;1.00;;
50379;SDS011;37474;59.468;18.040;2023-03-13T12:36:32;1.63;;;0.90;;
50379;SDS011;37474;59.468;18.040;2023-03-13T12:39:09;1.10;;;0.77;;
50379;SDS011;37474;59.468;18.040;2023-03-13T12:41:49;3.13;;;1.00;;
50379;SDS011;37474;59.468;18.040;2023-03-13T12:44:27;2.70;;;1.13;;
50379;SDS011;37474;59.468;18.040;2023-03-13T12:46:57;1.10;;;0.80;;
50379;SDS011;37474;59.468;18.040;2023-03-13T12:49:52;2.13;;;1.03;;
50379;SDS011;37474;59.468;18.040;2023-03-13T12:52:39;1.97;;;0.90;;
50379;SDS011;37474;59.468;18.040;2023-03-13T12:58:11;2.40;;;1.10;;
50379;SDS011;37474;59.468;18.040;2023-03-13T13:00:46;2.67;;;1.17;;
50379;SDS011;37474;59.468;18.040;2023-03-13T13:03:19;1.80;;;1.20;;
50379;SDS011;37474;59.468;18.040;2023-03-13T13:06:01;2.35;;;1.25;;
50379;SDS011;37474;59.468;18.040;2023-03-13T13:08:33;2.13;;;1.30;;
50379;SDS011;37474;59.468;18.040;2023-03-13T13:17:18;1.73;;;1.20;;
50379;SDS011;37474;59.468;18.040;2023-03-13T13:19:50;3.23;;;1.30;;
50379;SDS011;37474;59.468;18.040;2023-03-13T13:25:28;2.87;;;1.40;;
50379;SDS011;37474;59.468;18.040;2023-03-13T13:28:21;3.13;;;1.50;;
50379;SDS011;37474;59.468;18.040;2023-03-13T13:31:00;4.27;;;1.40;;
50379;SDS011;37474;59.468;18.040;2023-03-13T13:33:38;4.37;;;1.37;;
50379;SDS011;37474;59.468;18.040;2023-03-13T13:36:27;3.57;;;1.47;;
50379;SDS011;37474;59.468;18.040;2023-03-13T13:38:57;3.50;;;1.80;;
50379;SDS011;37474;59.468;18.040;2023-03-13T13:41:33;3.17;;;1.85;;
50379;SDS011;37474;59.468;18.040;2023-03-13T13:44:22;2.43;;;1.83;;
50379;SDS011;37474;59.468;18.040;2023-03-13T13:46:55;1.70;;;1.53;;
50379;SDS011;37474;59.468;18.040;2023-03-13T13:49:31;4.27;;;2.10;;
50379;SDS011;37474;59.468;18.040;2023-03-13T13:58:18;2.60;;;1.73;;
50379;SDS011;37474;59.468;18.040;2023-03-13T14:00:51;4.13;;;1.60;;
50379;SDS011;37474;59.468;18.040;2023-03-13T14:03:23;4.30;;;1.90;;
50379;SDS011;37474;59.468;18.040;2023-03-13T14:05:53;4.57;;;2.07;;
50379;SDS011;37474;59.468;18.040;2023-03-13T14:08:26;2.87;;;1.77;;
50379;SDS011;37474;59.468;18.040;2023-03-13T14:11:04;4.53;;;2.30;;
50379;SDS011;37474;59.468;18.040;2023-03-13T14:14:09;9.87;;;2.47;;
50379;SDS011;37474;59.468;18.040;2023-03-13T14:16:38;3.17;;;1.90;;
50379;SDS011;37474;59.468;18.040;2023-03-13T14:19:19;4.20;;;1.73;;
50379;SDS011;37474;59.468;18.040;2023-03-13T14:21:50;2.97;;;1.93;;
50379;SDS011;37474;59.468;18.040;2023-03-13T14:24:24;3.83;;;1.53;;
50379;SDS011;37474;59.468;18.040;2023-03-13T14:26:52;2.53;;;1.53;;
50379;SDS011;37474;59.468;18.040;2023-03-13T14:29:21;2.43;;;1.30;;
50379;SDS011;37474;59.468;18.040;2023-03-13T14:31:52;2.07;;;1.20;;
50379;SDS011;37474;59.468;18.040;2023-03-13T14:34:21;1.85;;;1.20;;
50379;SDS011;37474;59.468;18.040;2023-03-13T14:36:50;2.37;;;1.30;;
50379;SDS011;37474;59.468;18.040;2023-03-13T14:39:36;4.20;;;1.70;;
50379;SDS011;37474;59.468;18.040;2023-03-13T14:42:10;1.63;;;1.23;;
50379;SDS011;37474;59.468;18.040;2023-03-13T14:44:41;4.00;;;1.63;;
50379;SDS011;37474;59.468;18.040;2023-03-13T14:47:16;4.13;;;1.80;;
50379;SDS011;37474;59.468;18.040;2023-03-13T14:49:53;3.60;;;1.70;;
50379;SDS011;37474;59.468;18.040;2023-03-13T14:52:24;3.27;;;1.70;;
50379;SDS011;37474;59.468;18.040;2023-03-13T14:54:56;5.28;;;1.90;;
50379;SDS011;37474;59.468;18.040;2023-03-13T14:57:27;2.10;;;1.40;;
50379;SDS011;37474;59.468;18.040;2023-03-13T15:05:43;3.50;;;1.70;;
50379;SDS011;37474;59.468;18.040;2023-03-13T15:08:13;3.13;;;1.67;;
50379;SDS011;37474;59.468;18.040;2023-03-13T15:10:42;2.63;;;1.58;;
50379;SDS011;37474;59.468;18.040;2023-03-13T15:13:15;3.67;;;1.50;;
50379;SDS011;37474;59.468;18.040;2023-03-13T15:15:47;2.77;;;1.47;;
50379;SDS011;37474;59.468;18.040;2023-03-13T15:18:16;2.70;;;1.33;;
50379;SDS011;37474;59.468;18.040;2023-03-13T15:20:50;2.40;;;1.33;;
50379;SDS011;37474;59.468;18.040;2023-03-13T15:23:19;2.23;;;1.40;;
50379;SDS011;37474;59.468;18.040;2023-03-13T15:25:49;3.53;;;1.70;;
50379;SDS011;37474;59.468;18.040;2023-03-13T15:28:18;3.77;;;1.30;;
50379;SDS011;37474;59.468;18.040;2023-03-13T15:30:50;2.55;;;1.38;;
50379;SDS011;37474;59.468;18.040;2023-03-13T15:33:21;3.10;;;1.50;;
50379;SDS011;37474;59.468;18.040;2023-03-13T15:35:50;2.90;;;1.20;;